createdAt,value
2022-09-28T00:00:19.578Z,1.23
2022-09-28T00:02:46.363Z,0.75
2022-09-28T00:05:13.197Z,1.13
2022-09-28T00:07:39.793Z,1.48
2022-09-28T00:10:07.393Z,1.23
2022-09-28T00:12:34.507Z,1.48
2022-09-28T00:15:01.144Z,1.70
2022-09-28T00:17:27.818Z,0.93
2022-09-28T00:19:55.911Z,0.70
2022-09-28T00:22:22.511Z,0.73
2022-09-28T00:24:49.147Z,0.60
2022-09-28T00:27:15.805Z,0.50
2022-09-28T00:29:42.404Z,3.08
2022-09-28T00:32:11.707Z,0.88
2022-09-28T00:34:41.190Z,0.50
2022-09-28T00:37:08.919Z,0.63
2022-09-28T00:39:36.074Z,0.63
2022-09-28T00:42:03.157Z,1.95
2022-09-28T00:44:47.879Z,0.38
2022-09-28T00:50:00.977Z,0.93
2022-09-28T00:55:13.330Z,0.50
2022-09-28T00:57:40.730Z,0.50
2022-09-28T01:00:07.865Z,0.95
2022-09-28T01:02:34.431Z,3.22
2022-09-28T01:05:01.401Z,0.77
2022-09-28T01:07:28.671Z,2.75
2022-09-28T01:09:56.270Z,1.25
2022-09-28T01:12:22.889Z,1.08
2022-09-28T01:14:49.479Z,0.45
2022-09-28T01:17:17.815Z,0.50
2022-09-28T01:23:25.725Z,0.50
2022-09-28T01:25:55.827Z,6.10
2022-09-28T01:28:25.628Z,1.08
2022-09-28T01:31:06.615Z,3.42
2022-09-28T01:33:38.935Z,1.55
2022-09-28T01:36:10.668Z,0.63
2022-09-28T01:38:43.426Z,0.60
2022-09-28T01:43:39.154Z,1.77
2022-09-28T01:46:11.744Z,0.40
2022-09-28T01:49:00.781Z,2.25
2022-09-28T01:51:52.525Z,3.15
2022-09-28T01:54:25.721Z,0.95
2022-09-28T01:56:56.853Z,0.95
2022-09-28T01:59:26.278Z,0.60
2022-09-28T02:02:13.987Z,2.03
2022-09-28T02:04:44.379Z,0.52
2022-09-28T02:07:15.474Z,0.65
2022-09-28T02:09:48.670Z,0.50
2022-09-28T02:12:18.608Z,3.20
2022-09-28T02:14:45.302Z,0.40
2022-09-28T02:17:11.967Z,1.15
2022-09-28T02:19:38.574Z,1.17
2022-09-28T02:22:33.534Z,0.63
2022-09-28T02:25:14.016Z,0.52
2022-09-28T02:27:45.478Z,0.60
2022-09-28T02:30:12.400Z,0.65
2022-09-28T02:32:41.051Z,2.15
2022-09-28T02:35:09.356Z,0.50
2022-09-28T02:37:35.936Z,0.95
2022-09-28T02:40:03.575Z,0.80
2022-09-28T02:42:35.928Z,0.50
2022-09-28T02:51:25.642Z,2.38
2022-09-28T02:54:16.649Z,1.45
2022-09-28T02:57:09.793Z,2.47
2022-09-28T03:02:34.496Z,0.57
2022-09-28T03:05:22.983Z,3.50
2022-09-28T03:07:57.216Z,1.30
2022-09-28T03:10:46.195Z,0.90
2022-09-28T03:13:13.227Z,0.50
2022-09-28T03:15:43.340Z,1.92
2022-09-28T03:18:13.090Z,0.50
2022-09-28T03:20:39.960Z,0.55
2022-09-28T03:23:23.906Z,0.75
2022-09-28T03:25:51.715Z,2.35
2022-09-28T03:28:18.347Z,3.03
2022-09-28T03:30:45.033Z,1.45
2022-09-28T03:33:11.677Z,2.05
2022-09-28T03:35:38.317Z,0.70
2022-09-28T03:38:04.936Z,0.82
2022-09-28T03:40:31.566Z,1.92
2022-09-28T03:42:59.747Z,2.38
2022-09-28T03:45:26.364Z,0.95
2022-09-28T03:47:53.085Z,2.45
2022-09-28T03:50:19.690Z,3.10
2022-09-28T03:52:46.350Z,1.15
2022-09-28T03:55:13.003Z,0.60
2022-09-28T03:57:39.598Z,0.90
2022-09-28T04:00:06.606Z,4.38
2022-09-28T04:02:34.620Z,0.82
2022-09-28T04:05:01.706Z,1.35
2022-09-28T04:07:31.126Z,4.18
2022-09-28T04:09:58.164Z,1.55
2022-09-28T04:12:24.822Z,0.80
2022-09-28T04:14:51.445Z,1.15
2022-09-28T04:17:18.133Z,0.90
2022-09-28T04:19:44.777Z,1.05
2022-09-28T04:22:11.427Z,0.60
2022-09-28T04:24:38.215Z,0.30
2022-09-28T04:27:24.763Z,2.10
2022-09-28T04:29:51.431Z,0.40
2022-09-28T04:32:17.998Z,0.85
2022-09-28T04:34:44.652Z,1.45
2022-09-28T04:37:11.364Z,0.65
2022-09-28T04:39:37.958Z,0.57
2022-09-28T04:42:05.683Z,0.77
2022-09-28T04:44:32.273Z,0.55
2022-09-28T04:47:01.736Z,1.90
2022-09-28T04:49:31.687Z,0.80
2022-09-28T04:51:58.290Z,0.73
2022-09-28T04:54:24.900Z,4.00
2022-09-28T04:56:52.450Z,1.65
2022-09-28T04:59:19.070Z,1.40
2022-09-28T05:01:45.691Z,0.73
2022-09-28T05:04:12.285Z,2.38
2022-09-28T05:06:38.887Z,0.90
2022-09-28T05:09:05.681Z,1.50
2022-09-28T05:11:32.281Z,1.73
2022-09-28T05:13:58.947Z,1.98
2022-09-28T05:16:26.722Z,4.07
2022-09-28T05:18:56.901Z,1.27
2022-09-28T05:21:25.364Z,0.90
2022-09-28T05:23:52.467Z,1.15
2022-09-28T05:26:19.228Z,1.52
2022-09-28T05:28:45.851Z,1.95
2022-09-28T05:31:12.521Z,1.75
2022-09-28T05:33:39.468Z,1.77
2022-09-28T05:36:08.878Z,2.60
2022-09-28T05:38:35.494Z,3.97
2022-09-28T05:41:06.272Z,1.92
2022-09-28T05:43:33.258Z,3.83
2022-09-28T05:46:00.723Z,2.47
2022-09-28T05:48:28.182Z,2.75
2022-09-28T05:50:54.887Z,3.83
2022-09-28T05:53:21.627Z,3.22
2022-09-28T05:55:48.308Z,2.05
2022-09-28T05:58:15.053Z,2.33
2022-09-28T06:00:41.709Z,1.30
2022-09-28T06:03:11.220Z,1.02
2022-09-28T06:05:39.184Z,3.38
2022-09-28T06:08:06.593Z,1.60
2022-09-28T06:10:33.331Z,2.30
2022-09-28T06:13:00.308Z,1.52
2022-09-28T06:15:28.725Z,3.90
2022-09-28T06:17:58.595Z,1.35
2022-09-28T06:20:26.350Z,1.05
2022-09-28T06:22:53.651Z,2.03
2022-09-28T06:25:21.577Z,1.83
2022-09-28T06:28:10.181Z,1.27
2022-09-28T06:30:38.458Z,1.15
2022-09-28T06:33:05.784Z,0.90
2022-09-28T06:35:32.482Z,1.58
2022-09-28T06:37:59.795Z,0.98
2022-09-28T06:40:26.740Z,0.85
2022-09-28T06:42:57.783Z,4.28
2022-09-28T06:45:25.476Z,1.80
2022-09-28T06:47:56.531Z,4.38
2022-09-28T06:50:24.772Z,7.05
2022-09-28T06:52:52.739Z,4.75
2022-09-28T06:55:20.054Z,2.50
2022-09-28T06:57:46.754Z,2.53
2022-09-28T07:00:13.984Z,4.57
2022-09-28T07:02:40.691Z,1.25
2022-09-28T07:05:09.377Z,1.58
2022-09-28T07:07:36.382Z,1.58
2022-09-28T07:10:03.089Z,3.08
2022-09-28T07:12:30.143Z,0.77
2022-09-28T07:14:57.615Z,0.75
2022-09-28T07:17:24.454Z,2.05
2022-09-28T07:19:53.088Z,1.88
2022-09-28T07:22:29.691Z,1.42
2022-09-28T07:25:05.501Z,1.75
2022-09-28T07:27:32.170Z,1.00
2022-09-28T07:29:58.823Z,1.52
2022-09-28T07:32:25.551Z,1.80
2022-09-28T07:34:58.174Z,1.00
2022-09-28T07:37:26.547Z,1.20
2022-09-28T07:40:13.112Z,2.65
2022-09-28T07:42:39.747Z,1.05
2022-09-28T07:45:06.979Z,3.22
2022-09-28T07:47:35.262Z,2.17
2022-09-28T07:50:02.304Z,2.28
2022-09-28T07:52:29.072Z,1.45
2022-09-28T07:54:55.887Z,2.25
2022-09-28T07:57:22.662Z,1.23
2022-09-28T07:59:50.683Z,2.13
2022-09-28T08:02:19.920Z,1.95
2022-09-28T08:04:48.401Z,2.35
2022-09-28T08:07:19.423Z,1.08
2022-09-28T08:09:49.542Z,3.47
2022-09-28T08:12:18.323Z,2.28
2022-09-28T08:14:45.481Z,2.00
2022-09-28T08:17:12.087Z,1.60
2022-09-28T08:19:58.678Z,4.35
2022-09-28T08:22:25.300Z,1.55
2022-09-28T08:24:52.039Z,2.10
2022-09-28T08:27:18.699Z,1.50
2022-09-28T08:29:45.417Z,2.20
2022-09-28T08:32:12.028Z,1.52
2022-09-28T08:34:40.156Z,0.75
2022-09-28T08:37:07.471Z,1.70
2022-09-28T08:39:34.675Z,2.15
2022-09-28T08:42:13.633Z,1.23
2022-09-28T08:47:49.398Z,1.98
2022-09-28T08:50:18.793Z,1.13
2022-09-28T08:52:47.098Z,3.38
2022-09-28T08:55:27.967Z,3.85
2022-09-28T08:58:05.225Z,1.30
2022-09-28T09:00:38.861Z,2.70
2022-09-28T09:03:14.894Z,2.15
2022-09-28T09:05:52.099Z,1.95
2022-09-28T09:08:33.606Z,3.80
2022-09-28T09:11:10.163Z,4.63
2022-09-28T09:14:03.019Z,1.65
2022-09-28T09:17:00.317Z,0.70
2022-09-28T09:19:37.558Z,2.03
2022-09-28T09:22:28.238Z,1.90
2022-09-28T09:25:06.957Z,1.90
2022-09-28T09:27:59.667Z,1.30
2022-09-28T09:30:30.237Z,1.33
2022-09-28T09:33:12.501Z,1.10
2022-09-28T09:36:02.741Z,1.73
2022-09-28T09:38:37.874Z,5.55
2022-09-28T09:41:31.922Z,0.90
2022-09-28T09:46:42.525Z,2.35
2022-09-28T09:49:30.829Z,2.72
2022-09-28T09:52:05.351Z,2.13
2022-09-28T09:54:42.725Z,4.68
2022-09-28T09:57:46.462Z,3.22
2022-09-28T10:00:14.515Z,1.00
2022-09-28T10:02:41.645Z,2.15
2022-09-28T10:05:16.764Z,1.52
2022-09-28T10:08:04.628Z,1.55
2022-09-28T10:10:35.951Z,1.75
2022-09-28T10:13:02.596Z,2.58
2022-09-28T10:15:31.093Z,4.22
2022-09-28T10:18:00.124Z,0.98
2022-09-28T10:20:26.730Z,6.70
2022-09-28T10:22:53.351Z,6.53
2022-09-28T10:25:20.062Z,1.83
2022-09-28T10:27:49.345Z,4.50
2022-09-28T10:30:19.017Z,1.58
2022-09-28T10:32:47.059Z,4.07
2022-09-28T10:38:04.581Z,1.73
2022-09-28T10:40:54.310Z,2.08
2022-09-28T10:46:21.886Z,1.10
2022-09-28T10:48:54.822Z,1.20
2022-09-28T10:51:21.975Z,2.42
2022-09-28T10:54:03.879Z,2.75
2022-09-28T10:56:36.094Z,1.65
2022-09-28T10:59:04.373Z,3.53
2022-09-28T11:01:33.035Z,2.67
2022-09-28T11:04:01.542Z,3.47
2022-09-28T11:06:30.140Z,4.75
2022-09-28T11:08:57.849Z,5.03
2022-09-28T11:11:25.528Z,2.97
2022-09-28T11:13:55.653Z,3.65
2022-09-28T11:16:29.200Z,3.08
2022-09-28T11:18:57.166Z,1.38
2022-09-28T11:21:26.442Z,3.55
2022-09-28T11:26:37.713Z,4.43
2022-09-28T11:29:04.948Z,13.82
2022-09-28T11:31:31.689Z,2.20
2022-09-28T11:34:06.124Z,2.65
2022-09-28T11:36:44.134Z,2.22
2022-09-28T11:39:17.780Z,3.30
2022-09-28T11:44:46.492Z,1.95
2022-09-28T11:47:42.915Z,4.32
2022-09-28T11:50:49.490Z,2.60
2022-09-28T11:53:43.003Z,4.32
2022-09-28T11:56:45.474Z,3.15
2022-09-28T11:59:18.268Z,3.93
2022-09-28T12:04:23.067Z,7.97
2022-09-28T12:06:54.027Z,11.40
2022-09-28T12:09:25.181Z,6.90
2022-09-28T12:11:55.056Z,2.05
2022-09-28T12:14:26.045Z,8.63
2022-09-28T12:17:07.934Z,2.40
2022-09-28T12:19:43.970Z,2.97
2022-09-28T12:22:16.218Z,1.70
2022-09-28T12:24:45.937Z,2.97
2022-09-28T12:27:21.434Z,2.20
2022-09-28T12:30:25.694Z,3.78
2022-09-28T12:33:01.962Z,2.17
2022-09-28T12:36:08.541Z,6.30
2022-09-28T12:44:41.590Z,2.75
2022-09-28T12:50:39.640Z,2.58
2022-09-28T12:56:18.083Z,2.58
2022-09-28T12:59:19.650Z,1.67
2022-09-28T13:02:18.952Z,2.75
2022-09-28T13:05:25.454Z,1.73
2022-09-28T13:07:59.207Z,1.90
2022-09-28T13:10:40.317Z,2.45
2022-09-28T13:13:45.199Z,4.57
2022-09-28T13:16:35.534Z,3.60
2022-09-28T13:19:13.724Z,2.25
2022-09-28T13:21:54.619Z,2.90
2022-09-28T13:24:32.653Z,3.35
2022-09-28T13:27:05.390Z,2.70
2022-09-28T13:29:32.008Z,2.40
2022-09-28T13:31:58.932Z,4.13
2022-09-28T13:34:28.769Z,2.75
2022-09-28T13:39:58.890Z,2.60
2022-09-28T13:42:47.490Z,6.20
2022-09-28T13:48:11.742Z,3.10
2022-09-28T13:51:05.071Z,2.05
2022-09-28T13:53:59.202Z,3.13
2022-09-28T13:57:05.693Z,2.45
2022-09-28T13:59:32.360Z,4.45
2022-09-28T14:02:12.458Z,3.95
2022-09-28T14:05:00.089Z,2.33
2022-09-28T14:07:47.265Z,3.30
2022-09-28T14:10:24.832Z,2.80
2022-09-28T14:12:53.116Z,7.80
2022-09-28T14:15:40.781Z,6.18
2022-09-28T14:18:14.804Z,2.38
2022-09-28T14:20:58.416Z,3.42
2022-09-28T14:23:47.691Z,3.35
2022-09-28T14:26:41.815Z,6.70
2022-09-28T14:29:16.478Z,3.33
2022-09-28T14:31:45.248Z,4.05
2022-09-28T14:34:34.071Z,4.13
2022-09-28T14:37:21.751Z,3.78
2022-09-28T14:40:08.294Z,3.20
2022-09-28T14:42:35.068Z,2.05
2022-09-28T14:45:07.885Z,2.63
2022-09-28T14:47:42.986Z,5.55
2022-09-28T14:50:26.277Z,6.85
2022-09-28T14:52:54.533Z,3.60
2022-09-28T14:55:26.634Z,4.47
2022-09-28T14:57:56.457Z,6.88
2022-09-28T15:00:25.926Z,5.57
2022-09-28T15:02:53.850Z,3.10
2022-09-28T15:05:24.062Z,8.07
2022-09-28T15:07:52.157Z,4.35
2022-09-28T15:10:42.990Z,4.13
2022-09-28T15:13:26.040Z,5.25
2022-09-28T15:15:55.386Z,4.90
2022-09-28T15:18:38.518Z,2.65
2022-09-28T15:21:05.286Z,5.97
2022-09-28T15:23:36.725Z,9.60
2022-09-28T15:26:04.214Z,8.50
2022-09-28T15:28:30.795Z,12.13
2022-09-28T15:31:01.520Z,7.47
2022-09-28T15:36:06.634Z,5.40
2022-09-28T15:38:33.939Z,4.70
2022-09-28T15:41:04.401Z,8.63
2022-09-28T15:43:33.369Z,5.68
2022-09-28T15:46:18.416Z,8.52
2022-09-28T15:48:55.226Z,10.00
2022-09-28T15:51:22.778Z,9.85
2022-09-28T15:54:18.144Z,7.07
2022-09-28T15:56:59.536Z,4.40
2022-09-28T15:59:35.447Z,4.28
2022-09-28T16:02:12.682Z,7.00
2022-09-28T16:05:00.526Z,10.05
2022-09-28T16:12:53.953Z,7.20
2022-09-28T16:15:24.709Z,7.97
2022-09-28T16:17:54.124Z,4.60
2022-09-28T16:20:31.902Z,6.40
2022-09-28T16:23:05.890Z,4.25
2022-09-28T16:25:34.114Z,7.50
2022-09-28T16:28:00.831Z,5.10
2022-09-28T16:30:29.605Z,5.10
2022-09-28T16:32:57.680Z,5.93
2022-09-28T16:35:27.216Z,3.70
2022-09-28T16:38:00.123Z,6.90
2022-09-28T16:40:27.057Z,7.88
2022-09-28T16:42:54.821Z,4.70
2022-09-28T16:45:23.273Z,6.65
2022-09-28T16:47:52.738Z,6.13
2022-09-28T16:50:20.838Z,8.27
2022-09-28T16:53:09.607Z,4.70
2022-09-28T16:55:40.730Z,8.45
2022-09-28T16:58:08.136Z,8.88
2022-09-28T17:00:34.899Z,7.88
2022-09-28T17:03:01.682Z,10.77
2022-09-28T17:05:28.504Z,7.80
2022-09-28T17:08:03.104Z,7.10
2022-09-28T17:10:55.788Z,4.78
2022-09-28T17:13:31.421Z,9.65
2022-09-28T17:15:58.686Z,12.55
2022-09-28T17:18:25.463Z,5.15
2022-09-28T17:20:53.154Z,8.35
2022-09-28T17:25:51.286Z,6.95
2022-09-28T17:28:22.859Z,8.80
2022-09-28T17:30:49.515Z,9.32
2022-09-28T17:33:16.305Z,5.63
2022-09-28T17:35:43.220Z,5.35
2022-09-28T17:38:12.149Z,11.20
2022-09-28T17:40:39.035Z,7.07
2022-09-28T17:43:06.141Z,12.98
2022-09-28T17:45:33.356Z,9.50
2022-09-28T17:48:00.659Z,11.30
2022-09-28T17:50:29.605Z,11.30
2022-09-28T17:52:57.739Z,11.65
2022-09-28T17:55:28.587Z,10.45
2022-09-28T17:57:55.692Z,8.98
2022-09-28T18:00:23.176Z,5.43
2022-09-28T18:02:50.943Z,9.50
2022-09-28T18:05:19.481Z,9.35
2022-09-28T18:07:47.733Z,7.43
2022-09-28T18:10:19.593Z,5.78
2022-09-28T18:12:46.250Z,11.90
2022-09-28T18:15:12.828Z,8.93
2022-09-28T18:17:39.482Z,6.72
2022-09-28T18:20:07.374Z,7.38
2022-09-28T18:22:33.929Z,5.45
2022-09-28T18:25:00.559Z,15.65
2022-09-28T18:27:30.120Z,14.13
2022-09-28T18:29:56.845Z,15.27
2022-09-28T18:32:23.578Z,11.60
2022-09-28T18:34:50.326Z,11.30
2022-09-28T18:37:16.941Z,11.18
2022-09-28T18:39:43.544Z,13.10
2022-09-28T18:42:10.499Z,10.98
2022-09-28T18:44:37.104Z,8.20
2022-09-28T18:47:03.735Z,4.70
2022-09-28T18:49:30.758Z,9.18
2022-09-28T18:51:57.430Z,3.83
2022-09-28T18:54:24.310Z,4.82
2022-09-28T18:56:54.811Z,4.20
2022-09-28T18:59:21.669Z,6.18
2022-09-28T19:01:48.524Z,3.30
2022-09-28T19:04:15.425Z,4.10
2022-09-28T19:06:42.709Z,3.38
2022-09-28T19:09:09.675Z,5.97
2022-09-28T19:11:36.361Z,4.80
2022-09-28T19:14:03.541Z,4.53
2022-09-28T19:16:30.556Z,5.15
2022-09-28T19:18:57.785Z,5.53
2022-09-28T19:21:24.621Z,2.63
2022-09-28T19:23:54.392Z,2.67
2022-09-28T19:26:24.831Z,4.90
2022-09-28T19:28:51.427Z,8.30
2022-09-28T19:31:18.128Z,4.88
2022-09-28T19:33:46.368Z,10.13
2022-09-28T19:36:14.927Z,6.30
2022-09-28T19:38:42.157Z,7.30
2022-09-28T19:41:10.909Z,13.35
2022-09-28T19:43:38.206Z,12.65
2022-09-28T19:46:05.814Z,10.80
2022-09-28T19:48:33.374Z,13.43
2022-09-28T19:51:02.418Z,11.68
2022-09-28T19:53:30.921Z,12.45
2022-09-28T19:55:58.019Z,8.45
2022-09-28T19:58:25.534Z,12.45
2022-09-28T20:00:52.151Z,5.68
2022-09-28T20:03:18.853Z,2.63
2022-09-28T20:05:46.176Z,2.90
2022-09-28T20:08:14.927Z,2.60
2022-09-28T20:10:52.336Z,2.92
2022-09-28T20:13:19.152Z,5.40
2022-09-28T20:15:45.886Z,4.95
2022-09-28T20:18:12.513Z,3.95
2022-09-28T20:20:41.883Z,4.00
2022-09-28T20:23:09.242Z,3.92
2022-09-28T20:25:35.885Z,2.40
2022-09-28T20:28:02.519Z,5.72
2022-09-28T20:30:29.224Z,10.50
2022-09-28T20:32:55.935Z,11.55
2022-09-28T20:35:32.629Z,9.75
2022-09-28T20:38:07.707Z,7.85
2022-09-28T20:40:36.467Z,7.18
2022-09-28T20:43:06.279Z,8.95
2022-09-28T20:45:35.420Z,7.80
2022-09-28T20:48:04.503Z,7.05
2022-09-28T20:50:31.223Z,12.40
2022-09-28T20:52:57.828Z,5.28
2022-09-28T20:55:24.450Z,4.47
2022-09-28T20:57:51.137Z,6.20
2022-09-28T21:00:17.803Z,11.73
2022-09-28T21:02:44.492Z,13.25
2022-09-28T21:05:11.274Z,9.77
2022-09-28T21:07:37.946Z,15.30
2022-09-28T21:10:05.513Z,10.82
2022-09-28T21:12:34.141Z,8.48
2022-09-28T21:15:04.995Z,6.18
2022-09-28T21:17:32.589Z,7.23
2022-09-28T21:19:59.222Z,11.20
2022-09-28T21:22:25.880Z,7.15
2022-09-28T21:24:52.524Z,7.55
2022-09-28T21:27:19.209Z,12.32
2022-09-28T21:29:45.877Z,7.68
2022-09-28T21:32:12.691Z,8.45
2022-09-28T21:34:39.518Z,13.32
2022-09-28T21:37:06.156Z,6.53
2022-09-28T21:39:32.783Z,3.60
2022-09-28T21:41:59.723Z,2.75
2022-09-28T21:44:26.294Z,6.85
2022-09-28T21:46:52.980Z,2.08
2022-09-28T21:49:19.672Z,2.60
2022-09-28T21:51:47.232Z,1.77
2022-09-28T21:54:14.941Z,1.08
2022-09-28T21:56:44.245Z,1.90
2022-09-28T21:59:10.936Z,2.13
2022-09-28T22:01:37.676Z,1.63
2022-09-28T22:04:04.342Z,1.40
2022-09-28T22:06:30.958Z,1.90
2022-09-28T22:08:57.918Z,1.63
2022-09-28T22:11:26.951Z,1.67
2022-09-28T22:13:55.640Z,2.72
2022-09-28T22:16:23.671Z,2.65
2022-09-28T22:18:50.557Z,2.13
2022-09-28T22:21:19.870Z,1.75
2022-09-28T22:23:46.700Z,1.30
2022-09-28T22:26:18.883Z,2.00
2022-09-28T22:28:46.975Z,2.22
2022-09-28T22:31:14.318Z,3.30
2022-09-28T22:33:40.931Z,3.58
2022-09-28T22:36:07.863Z,6.20
2022-09-28T22:38:35.168Z,5.32
2022-09-28T22:41:03.645Z,4.90
2022-09-28T22:43:30.438Z,4.22
2022-09-28T22:46:05.258Z,6.82
2022-09-28T22:48:32.225Z,5.25
2022-09-28T22:50:59.047Z,2.13
2022-09-28T22:53:25.690Z,2.60
2022-09-28T22:55:52.417Z,2.45
2022-09-28T22:58:19.025Z,2.08
2022-09-28T23:00:45.611Z,1.75
2022-09-28T23:03:12.296Z,2.22
2022-09-28T23:05:39.127Z,1.50
2022-09-28T23:08:05.855Z,3.17
2022-09-28T23:10:32.530Z,2.67
2022-09-28T23:12:59.565Z,2.92
2022-09-28T23:15:27.719Z,1.85
2022-09-28T23:17:54.636Z,2.25
2022-09-28T23:20:21.728Z,1.73
2022-09-28T23:22:48.908Z,3.78
2022-09-28T23:25:16.147Z,2.60
2022-09-28T23:27:50.516Z,3.72
2022-09-28T23:30:18.854Z,2.00
2022-09-28T23:32:45.637Z,2.13
2022-09-28T23:35:12.990Z,1.85
2022-09-28T23:37:39.798Z,1.95
2022-09-28T23:40:06.833Z,1.50
2022-09-28T23:42:35.439Z,4.75
2022-09-28T23:45:02.090Z,2.33
2022-09-28T23:47:28.714Z,2.05
2022-09-28T23:49:55.499Z,6.30
2022-09-28T23:52:22.127Z,2.80
2022-09-28T23:54:48.881Z,2.72
2022-09-28T23:57:15.704Z,2.00
2022-09-28T23:59:42.354Z,2.00
